Time,TemperatureF,DewpointF,PressureIn,WindDirection,WindDirectionDegrees,WindSpeedMPH,WindSpeedGustMPH,Humidity,HourlyPrecipIn,Conditions,Clouds,dailyrainin,SolarRadiationWatts/m^2,SoftwareType,DateUTC
2013-07-04 00:34:00,72.0,41.0,-100.00,SW,233,5.0,9.0,32,-99.99,,,0.00,0.000000,,2013-07-04 06:34:00,
2013-07-04 00:43:00,72.0,41.0,-100.00,SW,233,5.0,9.0,32,-99.99,,,0.00,0.000000,,2013-07-04 06:43:00,
2013-07-04 01:34:00,71.0,41.0,-100.00,SE,134,1.0,8.0,34,-99.99,,,-99.99,0.000000,,2013-07-04 07:34:00,
2013-07-04 01:43:00,71.0,41.0,-100.00,SE,134,1.0,8.0,34,-99.99,,,-99.99,0.000000,,2013-07-04 07:43:00,
2013-07-04 02:33:00,69.0,42.0,-100.00,West,272,12.0,18.0,38,-99.99,,,0.00,0.000000,,2013-07-04 08:33:00,
2013-07-04 03:33:00,67.0,47.0,-100.00,West,263,12.0,21.0,49,-99.99,,,0.00,0.000000,,2013-07-04 09:33:00,
2013-07-04 03:42:00,67.0,47.0,-100.00,West,263,12.0,21.0,49,-99.99,,,0.00,0.000000,,2013-07-04 09:42:00,
2013-07-04 04:34:00,66.0,49.0,-100.00,West,270,13.0,21.0,54,-99.99,,,0.00,0.000000,,2013-07-04 10:34:00,
2013-07-04 04:43:00,66.0,49.0,-100.00,West,270,13.0,21.0,54,-99.99,,,0.00,0.000000,,2013-07-04 10:43:00,
2013-07-04 05:34:00,66.0,50.0,-100.00,WSW,258,7.0,15.0,56,-99.99,,,0.00,0.000000,,2013-07-04 11:34:00,
2013-07-04 06:43:00,64.0,49.0,-100.00,NE,37,0.0,9.0,58,-99.99,,,0.00,3.000000,,2013-07-04 12:43:00,
2013-07-04 06:52:00,64.0,49.0,-100.00,NE,37,0.0,9.0,58,-99.99,,,0.00,3.000000,,2013-07-04 12:52:00,
2013-07-04 08:53:00,66.0,48.0,-100.00,SE,124,2.0,5.0,52,-99.99,,,0.00,184.000000,,2013-07-04 14:53:00,
2013-07-04 09:33:00,67.0,51.0,-100.00,SE,138,4.0,6.0,57,-99.99,,,0.00,237.000000,,2013-07-04 15:33:00,
2013-07-04 09:43:00,67.0,51.0,-100.00,SE,138,4.0,6.0,57,-99.99,,,0.00,237.000000,,2013-07-04 15:43:00,
2013-07-04 09:52:00,67.0,51.0,-100.00,SE,138,4.0,6.0,57,-99.99,,,0.00,237.000000,,2013-07-04 15:52:00,
2013-07-04 10:02:00,67.0,51.0,-100.00,SE,138,4.0,6.0,57,-99.99,,,0.00,237.000000,,2013-07-04 16:02:00,
2013-07-04 10:33:00,70.0,54.0,-100.00,NW,324,3.0,6.0,56,0.00,,,0.00,334.000000,,2013-07-04 16:33:00,
2013-07-04 10:43:00,70.0,54.0,-100.00,NW,324,3.0,6.0,56,0.00,,,0.00,334.000000,,2013-07-04 16:43:00,
2013-07-04 10:52:00,70.0,54.0,-100.00,NW,324,3.0,6.0,56,0.00,,,0.00,334.000000,,2013-07-04 16:52:00,
2013-07-04 11:01:00,70.0,54.0,-100.00,NW,324,3.0,6.0,56,0.00,,,0.00,334.000000,,2013-07-04 17:01:00,
2013-07-04 11:34:00,73.0,50.0,-100.00,ESE,116,4.0,10.0,45,0.00,,,0.00,688.000000,,2013-07-04 17:34:00,
2013-07-04 11:43:00,73.0,50.0,-100.00,ESE,116,4.0,10.0,45,0.00,,,0.00,688.000000,,2013-07-04 17:43:00,
2013-07-04 11:53:00,73.0,50.0,-100.00,ESE,116,4.0,10.0,45,0.00,,,0.00,688.000000,,2013-07-04 17:53:00,
2013-07-04 12:01:00,73.0,50.0,-100.00,ESE,116,4.0,10.0,45,0.00,,,0.00,688.000000,,2013-07-04 18:01:00,
2013-07-04 12:33:00,73.0,52.0,-100.00,ESE,112,4.0,6.0,47,0.00,,,0.00,561.000000,,2013-07-04 18:33:00,
2013-07-04 12:43:00,73.0,52.0,-100.00,ESE,112,4.0,6.0,47,0.00,,,0.00,561.000000,,2013-07-04 18:43:00,
2013-07-04 12:52:00,73.0,52.0,-100.00,ESE,112,4.0,6.0,47,0.00,,,0.00,561.000000,,2013-07-04 18:52:00,
2013-07-04 13:01:00,73.0,52.0,-100.00,ESE,112,4.0,6.0,47,0.00,,,0.00,561.000000,,2013-07-04 19:01:00,
2013-07-04 13:34:00,79.0,53.0,-100.00,WNW,295,5.0,9.0,40,0.00,,,0.00,1027.000000,,2013-07-04 19:34:00,
2013-07-04 13:43:00,79.0,53.0,-100.00,WNW,295,5.0,9.0,40,0.00,,,0.00,1027.000000,,2013-07-04 19:43:00,
2013-07-04 13:53:00,79.0,53.0,-100.00,WNW,295,5.0,9.0,40,0.00,,,0.00,1027.000000,,2013-07-04 19:53:00,
2013-07-04 14:01:00,79.0,53.0,-100.00,WNW,295,5.0,9.0,40,0.00,,,0.00,1027.000000,,2013-07-04 20:01:00,
2013-07-04 14:34:00,76.0,45.0,-100.00,West,278,14.0,19.0,33,0.00,,,0.00,718.000000,,2013-07-04 20:34:00,
2013-07-04 14:42:00,76.0,45.0,-100.00,West,278,14.0,19.0,33,0.00,,,0.00,718.000000,,2013-07-04 20:42:00,
2013-07-04 14:53:00,76.0,45.0,-100.00,West,278,14.0,19.0,33,0.00,,,0.00,718.000000,,2013-07-04 20:53:00,
2013-07-04 15:01:00,76.0,45.0,-100.00,West,278,14.0,19.0,33,0.00,,,0.00,718.000000,,2013-07-04 21:01:00,
2013-07-04 15:32:00,80.0,44.0,-100.00,WNW,283,11.0,21.0,28,0.00,,,0.00,746.000000,,2013-07-04 21:32:00,
2013-07-04 15:43:00,80.0,44.0,-100.00,WNW,283,11.0,21.0,28,0.00,,,0.00,746.000000,,2013-07-04 21:43:00,
2013-07-04 15:53:00,80.0,44.0,-100.00,WNW,283,11.0,21.0,28,0.00,,,0.00,746.000000,,2013-07-04 21:53:00,
2013-07-04 16:01:00,80.0,44.0,-100.00,WNW,283,11.0,21.0,28,0.00,,,0.00,746.000000,,2013-07-04 22:01:00,
2013-07-04 16:33:00,79.0,43.0,-100.00,WNW,282,17.0,25.0,28,0.00,,,0.00,975.000000,,2013-07-04 22:33:00,
2013-07-04 16:43:00,79.0,43.0,-100.00,WNW,282,17.0,25.0,28,0.00,,,0.00,975.000000,,2013-07-04 22:43:00,
2013-07-04 16:52:00,79.0,43.0,-100.00,WNW,282,17.0,25.0,28,0.00,,,0.00,975.000000,,2013-07-04 22:52:00,
2013-07-04 17:01:00,79.0,43.0,-100.00,WNW,282,17.0,25.0,28,0.00,,,0.00,975.000000,,2013-07-04 23:01:00,
2013-07-04 17:33:00,77.0,40.0,-100.00,West,276,15.0,25.0,27,0.00,,,0.00,680.000000,,2013-07-04 23:33:00,
2013-07-04 17:43:00,77.0,40.0,-100.00,West,276,15.0,25.0,27,0.00,,,0.00,680.000000,,2013-07-04 23:43:00,
2013-07-04 17:52:00,77.0,40.0,-100.00,West,276,15.0,25.0,27,0.00,,,0.00,680.000000,,2013-07-04 23:52:00,
2013-07-04 18:01:00,77.0,40.0,-100.00,West,276,15.0,25.0,27,0.00,,,0.00,680.000000,,2013-07-05 00:01:00,
2013-07-04 18:32:00,79.0,42.0,-100.00,West,277,14.0,23.0,27,0.00,,,0.00,647.000000,,2013-07-05 00:32:00,
2013-07-04 18:43:00,79.0,42.0,-100.00,West,277,14.0,23.0,27,0.00,,,0.00,647.000000,,2013-07-05 00:43:00,
2013-07-04 18:52:00,79.0,42.0,-100.00,West,277,14.0,23.0,27,0.00,,,0.00,647.000000,,2013-07-05 00:52:00,
2013-07-04 19:01:00,79.0,42.0,-100.00,West,277,14.0,23.0,27,0.00,,,0.00,647.000000,,2013-07-05 01:01:00,
2013-07-04 19:32:00,79.0,41.0,-100.00,West,278,16.0,21.0,26,0.00,,,0.00,464.000000,,2013-07-05 01:32:00,
2013-07-04 19:42:00,79.0,41.0,-100.00,West,278,16.0,21.0,26,0.00,,,0.00,464.000000,,2013-07-05 01:42:00,
2013-07-04 19:52:00,79.0,41.0,-100.00,West,278,16.0,21.0,26,0.00,,,0.00,464.000000,,2013-07-05 01:52:00,
2013-07-04 20:02:00,79.0,41.0,-100.00,West,278,16.0,21.0,26,0.00,,,0.00,464.000000,,2013-07-05 02:02:00,
2013-07-04 20:32:00,76.0,41.0,-100.00,West,271,16.0,22.0,28,0.00,,,0.00,273.000000,,2013-07-05 02:32:00,
2013-07-04 20:42:00,76.0,41.0,-100.00,West,271,16.0,22.0,28,0.00,,,0.00,273.000000,,2013-07-05 02:42:00,
2013-07-04 20:52:00,76.0,41.0,-100.00,West,271,16.0,22.0,28,0.00,,,0.00,273.000000,,2013-07-05 02:52:00,
2013-07-04 21:02:00,76.0,41.0,-100.00,West,271,16.0,22.0,28,0.00,,,0.00,273.000000,,2013-07-05 03:02:00,
2013-07-04 21:33:00,73.0,39.0,-100.00,West,260,10.0,23.0,29,0.00,,,0.00,90.000000,,2013-07-05 03:33:00,
2013-07-04 21:42:00,73.0,39.0,-100.00,West,260,10.0,23.0,29,0.00,,,0.00,90.000000,,2013-07-05 03:42:00,
2013-07-04 21:52:00,73.0,39.0,-100.00,West,260,10.0,23.0,29,0.00,,,0.00,90.000000,,2013-07-05 03:52:00,
2013-07-04 22:01:00,73.0,39.0,-100.00,West,260,10.0,23.0,29,0.00,,,0.00,90.000000,,2013-07-05 04:01:00,
2013-07-04 22:33:00,71.0,40.0,-100.00,West,268,12.0,20.0,32,0.00,,,0.00,6.000000,,2013-07-05 04:33:00,
2013-07-04 22:43:00,71.0,40.0,-100.00,West,268,12.0,20.0,32,0.00,,,0.00,6.000000,,2013-07-05 04:43:00,
2013-07-04 23:33:00,68.0,39.0,-100.00,West,266,15.0,19.0,34,-99.99,,,0.00,0.000000,,2013-07-05 05:33:00,
2013-07-04 23:43:00,68.0,39.0,-100.00,West,266,15.0,19.0,34,-99.99,,,0.00,0.000000,,2013-07-05 05:43:00,
2013-07-04 23:52:00,68.0,39.0,-100.00,West,266,15.0,19.0,34,-99.99,,,0.00,0.000000,,2013-07-05 05:52:00,